Language selection

My Weather Profile Weather Topics  | 

Bowie - southern half: Past 24 Hour Conditions

 

Bella Coola Airport

02:00 AM PDT 14 June 2021
Disclaimer

This table is a summary of hourly weather conditions for the past 24 hours.
Please note that these observations might not always be representative of weather conditions over their associated marine area.

Date / Time
(PDT)
Wind(knots) Conditions Visibility(km) Pressure(kPa) Air tempC) Relative humidity(%) Dew pointC) Humidex
14 June 2021
2:00 W 9 gust 16 N/A N/A 101.1 15 75 11 *
1:00 WNW 7 N/A N/A 101.1 15 73 10 *
0:00 W 9 gust 17 N/A N/A 101.0 16 70 10 *
13 June 2021
23:00 WNW 9 gust 18 N/A N/A 101.0 16 69 11 *
22:00 W 10 gust 15 N/A N/A 100.9 17 67 11 *
21:00 W 16 N/A N/A 100.8 18 61 11 *
20:00 WNW 10 gust 16 N/A N/A 100.8 19 54 10 *
19:00 W 13 N/A N/A 100.7 21 48 9 22
18:00 WSW 11 Partly Cloudy 24 100.6 22 40 8 23
17:00 WSW 13 gust 19 Partly Cloudy 24 100.6 23 39 8 *
16:00 SW 9 gust 19 Partly Cloudy 24 100.6 24 35 8 *
15:00 W 12 gust 22 Partly Cloudy 24 100.5 23 39 9 24
14:00 WSW 12 gust 19 Partly Cloudy 24 100.5 24 41 10 25
13:00 WSW 10 Partly Cloudy 24 100.5 24 43 10 25
12:00 calm Partly Cloudy 24 100.5 22 44 9 23
11:00 E 2 Partly Cloudy 24 100.5 20 51 10 21
10:00 NE 3 Partly Cloudy 24 100.6 17 64 10 *
9:00 ENE 4 Partly Cloudy 24 100.7 16 71 11 *
8:00 NE 4 Partly Cloudy 24 100.7 14 81 11 *
7:00 SW 2 Partly Cloudy 24 100.7 13 85 10 *
6:00 WNW 5 Mostly Cloudy 24 100.7 11 94 10 *
5:00 SSE 2 N/A N/A 100.7 11 93 10 *
4:00 ENE 3 N/A N/A 100.7 11 92 9 *
3:00 calm N/A N/A 100.8 11 91 10 *
2:00 E 3 N/A N/A 100.9 12 90 10 *

Zoom-in to make a selection

Map of Pacific - North Coast marine weather areas Middle Nomad - 46004 South Nomad - 46036 Dixon Entrance Central - 46145 South Moresby - 46147 Nanakwa Shoal - 46181 North Hecate Strait - 46183 North Nomad - 46184 South Hecate Strait - 46185 West Sea Otter - 46204 West Dixon Entrance - 46205 East Dellwood - 46207 West Moresby - 46208 Sartine Island Cape St.James Kindakun Rocks Langara Island Masset Municipal Airport Rose Spit Sandspit Airport Bella Bella Airport Bella Coola Airport Bonilla Island Cathedral Point Cumshewa Island Grey Islet Holland Rock Lucy Islands Lightstation Prince Rupert Airport
Legend:
buoy Buoy
land station Land Station

Pacific - North Coast Area

Another Region

What we are doing

Date modified: